Time;durP1;ratioP1;P1;durP2;ratioP2;P2;SDS_P1;SDS_P2;PMS_P1;PMS_P2;Temp;Humidity;BMP_temperature;BMP_pressure;BME280_temperature;BME280_humidity;BME280_pressure;Samples;Min_cycle;Max_cycle;Signal;HPM_P1;HPM_P2
2022/05/07 06:32:35;;;;;;;;;;;;;;;16.20;70.13;97246.84;4242613;27;10221;-65
2022/05/07 06:34:37;;;;;;;;;;;;;;;16.29;69.94;97243.66;4247711;27;6417;-65
2022/05/07 06:36:38;;;;;;;;;;;;;;;16.40;70.08;97246.66;4232205;27;5664;-65
2022/05/07 06:38:42;;;;;;;;;;;;;;;16.55;69.78;97239.16;4231406;28;6499;-64
2022/05/07 06:40:44;;;;;;;;;;;;;;;16.60;69.62;97252.63;4245337;27;5756;-64
2022/05/07 06:42:46;;;;;;;;;;;;;;;16.62;69.50;97245.22;4245790;27;5645;-64
2022/05/07 06:44:48;;;;;;;;;;;;;;;16.57;68.68;97245.91;4239854;27;5765;-65
2022/05/07 06:46:50;;;;;;;;;;;;;;;16.42;69.12;97232.09;4243902;27;5756;-66
2022/05/07 06:48:51;;;;;;;;;;;;;;;16.38;68.82;97230.88;4233834;27;5733;-65
2022/05/07 06:50:54;;;;;;;;;;;;;;;16.36;69.02;97242.81;4229101;28;5733;-65
2022/05/07 06:52:57;;;;;;;;;;;;;;;16.41;69.28;97242.94;4228910;28;6446;-65
2022/05/07 06:54:58;;;;;;;;;;;;;;;16.47;69.01;97236.75;4229055;28;5670;-65
2022/05/07 06:57:01;;;;;;;;;;;;;;;16.44;68.49;97245.22;4228820;28;5737;-65
2022/05/07 06:59:03;;;;;;;;;;;;;;;16.40;68.87;97236.81;4228814;27;5793;-65
2022/05/07 07:01:04;;;;;;;;;;;;;;;16.44;68.64;97240.69;4229091;28;5749;-65
2022/05/07 07:03:06;;;;;;;;;;;;;;;16.49;68.48;97240.81;4228795;28;5753;-65
2022/05/07 07:05:09;;;;;;;;;;;;;;;16.53;67.85;97241.19;4236677;27;5850;-65
2022/05/07 07:07:10;;;;;;;;;;;;;;;16.51;68.17;97238.75;4246396;27;5658;-65
2022/05/07 07:09:12;;;;;;;;;;;;;;;16.52;67.67;97235.03;4248861;27;5717;-65
2022/05/07 07:11:14;;;;;;;;;;;;;;;16.49;67.77;97238.16;4248781;27;5765;-65
2022/05/07 07:13:18;;;;;;;;;;;;;;;16.47;67.27;97231.41;4248413;27;5686;-66
2022/05/07 07:15:20;;;;;;;;;;;;;;;16.45;67.61;97228.16;4248296;27;6382;-65
2022/05/07 07:17:23;;;;;;;;;;;;;;;16.50;67.45;97230.97;4239684;27;5732;-65
2022/05/07 07:19:24;;;;;;;;;;;;;;;16.54;67.30;97226.84;4237674;27;5679;-65
2022/05/07 07:21:26;;;;;;;;;;;;;;;16.57;66.92;97226.41;4230198;28;5678;-66
2022/05/07 07:23:28;;;;;;;;;;;;;;;16.58;66.65;97222.69;4231238;28;5672;-65
2022/05/07 07:25:30;;;;;;;;;;;;;;;16.63;66.64;97230.84;4231421;28;5683;-65
2022/05/07 07:27:31;;;;;;;;;;;;;;;16.58;66.10;97222.69;4231246;28;5687;-66
2022/05/07 07:29:33;;;;;;;;;;;;;;;16.51;65.92;97221.91;4231726;28;5735;-66
2022/05/07 07:31:35;;;;;;;;;;;;;;;16.46;65.82;97216.44;4231681;27;5674;-66
2022/05/07 07:33:41;;;;;;;;;;;;;;;16.50;66.42;97212.28;4201312;28;5697;-65
2022/05/07 07:35:43;;;;;;;;;;;;;;;16.59;66.01;97222.47;4231092;28;5895;-66
2022/05/07 07:37:45;;;;;;;;;;;;;;;16.67;65.83;97225.91;4236482;27;5627;-65
2022/05/07 07:39:47;;;;;;;;;;;;;;;16.72;65.78;97221.53;4235856;28;5717;-65
2022/05/07 07:41:49;;;;;;;;;;;;;;;16.72;65.59;97216.19;4234839;27;5645;-64
2022/05/07 07:43:50;;;;;;;;;;;;;;;16.77;65.44;97226.22;4231896;28;5661;-65
2022/05/07 07:48:12;;;;;;;;;;;;;;;16.81;64.98;97238.91;4233933;28;5773;-65
2022/05/07 07:50:16;;;;;;;;;;;;;;;16.80;64.88;97221.25;4234414;28;5837;-65
2022/05/07 07:52:18;;;;;;;;;;;;;;;16.86;64.74;97216.88;4233716;28;5698;-65
2022/05/07 07:54:20;;;;;;;;;;;;;;;16.91;64.62;97221.56;4235953;28;5642;-65
2022/05/07 07:56:22;;;;;;;;;;;;;;;16.92;64.14;97223.19;4229451;28;5861;-65
2022/05/07 07:58:23;;;;;;;;;;;;;;;16.91;64.56;97232.25;4235493;28;5663;-64
2022/05/07 08:00:26;;;;;;;;;;;;;;;16.91;64.04;97225.03;4226531;27;5810;-65
2022/05/07 08:02:28;;;;;;;;;;;;;;;16.92;64.36;97233.88;4225340;28;5717;-66
2022/05/07 08:04:30;;;;;;;;;;;;;;;16.89;63.63;97232.47;4233651;28;5642;-66
2022/05/07 08:06:32;;;;;;;;;;;;;;;16.90;63.83;97227.94;4225488;28;5657;-66
2022/05/07 08:13:38;;;;;;;;;;;;;;;17.02;63.40;97234.16;4216691;28;5656;-66
2022/05/07 08:15:39;;;;;;;;;;;;;;;17.04;63.35;97226.75;4216177;28;5643;-65
2022/05/07 08:17:41;;;;;;;;;;;;;;;17.08;63.26;97227.91;4211967;28;5632;-65
2022/05/07 08:19:45;;;;;;;;;;;;;;;17.13;63.19;97226.22;4206515;28;5749;-66
2022/05/07 08:21:47;;;;;;;;;;;;;;;17.18;63.18;97226.34;4209597;28;5643;-66
2022/05/07 08:23:49;;;;;;;;;;;;;;;17.23;62.86;97225.69;4200174;28;5662;-65
2022/05/07 08:25:51;;;;;;;;;;;;;;;17.27;62.96;97228.72;4203480;28;5754;-66
2022/05/07 08:27:53;;;;;;;;;;;;;;;17.32;62.75;97232.34;4200766;28;5741;-65
2022/05/07 08:29:55;;;;;;;;;;;;;;;17.35;62.85;97237.25;4194560;28;5678;-65
2022/05/07 08:31:57;;;;;;;;;;;;;;;17.41;62.60;97228.31;4213393;28;5658;-66
2022/05/07 08:33:59;;;;;;;;;;;;;;;17.45;62.39;97228.72;4207105;28;5670;-66
2022/05/07 08:36:01;;;;;;;;;;;;;;;17.51;62.29;97232.31;4213974;28;5767;-66
2022/05/07 08:38:02;;;;;;;;;;;;;;;17.56;62.10;97235.97;4208954;28;5800;-66
2022/05/07 08:40:04;;;;;;;;;;;;;;;17.59;61.83;97224.81;4212611;28;5773;-65
2022/05/07 08:42:07;;;;;;;;;;;;;;;17.63;61.93;97227.81;4217451;28;5636;-65
2022/05/07 08:44:10;;;;;;;;;;;;;;;17.65;61.70;97239.09;4220347;28;5728;-65
2022/05/07 08:46:14;;;;;;;;;;;;;;;17.67;61.37;97229.03;4235045;28;5665;-65
2022/05/07 08:48:18;;;;;;;;;;;;;;;17.73;61.38;97225.47;4218884;28;5679;-65
2022/05/07 08:50:26;;;;;;;;;;;;;;;17.84;61.32;97227.34;4225321;27;5641;-66
2022/05/07 08:52:28;;;;;;;;;;;;;;;17.95;60.89;97229.25;4225038;28;5651;-65
2022/05/07 08:54:30;;;;;;;;;;;;;;;18.03;60.64;97225.44;4234502;28;5725;-64
2022/05/07 08:56:32;;;;;;;;;;;;;;;18.08;60.73;97230.06;4228584;27;5964;-64
2022/05/07 08:58:34;;;;;;;;;;;;;;;18.09;60.12;97221.81;4232914;28;7703;-64
2022/05/07 09:00:38;;;;;;;;;;;;;;;18.09;59.98;97223.69;4234875;28;5650;-64
2022/05/07 09:02:43;;;;;;;;;;;;;;;18.12;59.46;97217.84;4234889;28;6425;-65
2022/05/07 09:04:55;;;;;;;;;;;;;;;18.15;59.76;97217.41;4233821;28;5670;-64
2022/05/07 09:06:58;;;;;;;;;;;;;;;18.16;59.60;97229.75;4233972;28;5091;-65
2022/05/07 09:08:59;;;;;;;;;;;;;;;18.21;59.68;97221.84;4235521;27;5662;-65
2022/05/07 09:11:01;;;;;;;;;;;;;;;18.23;59.19;97211.72;4218051;28;5691;-66
2022/05/07 09:13:09;;;;;;;;;;;;;;;18.22;59.30;97213.56;4229715;28;5804;-66
2022/05/07 09:15:11;;;;;;;;;;;;;;;18.22;59.03;97200.19;4230212;28;5662;-77
2022/05/07 09:17:12;;;;;;;;;;;;;;;18.22;58.94;97202.88;4227193;28;5948;-76
2022/05/07 09:19:26;;;;;;;;;;;;;;;18.23;58.70;97203.69;4223268;28;5836;-68
2022/05/07 09:21:27;;;;;;;;;;;;;;;18.23;58.70;97201.84;4233076;27;6331;-70
2022/05/07 09:23:29;;;;;;;;;;;;;;;18.24;58.49;97205.34;4229158;27;5933;-73
2022/05/07 09:25:31;;;;;;;;;;;;;;;18.23;58.33;97214.38;4214398;28;5667;-69
2022/05/07 09:27:33;;;;;;;;;;;;;;;18.21;58.17;97206.59;4232383;27;5744;-72
2022/05/07 09:29:34;;;;;;;;;;;;;;;18.18;57.90;97200.91;4226618;27;5761;-79
2022/05/07 09:31:41;;;;;;;;;;;;;;;18.19;58.08;97200.66;4226610;27;5789;-72
2022/05/07 09:33:43;;;;;;;;;;;;;;;18.26;58.16;97190.66;4227251;27;6458;-76
2022/05/07 09:35:48;;;;;;;;;;;;;;;18.29;58.01;97194.75;4227554;27;6454;-80
2022/05/07 09:37:57;;;;;;;;;;;;;;;18.35;58.05;97196.50;4229256;28;5877;-77
2022/05/07 09:40:03;;;;;;;;;;;;;;;18.39;57.59;97199.53;4230507;27;5918;-75
2022/05/07 09:42:07;;;;;;;;;;;;;;;18.45;57.56;97204.75;4216734;28;5790;-73
2022/05/07 09:44:09;;;;;;;;;;;;;;;18.43;56.89;97200.66;4221428;28;5709;-75
2022/05/07 09:46:11;;;;;;;;;;;;;;;18.47;57.29;97205.34;4230125;28;5749;-79
2022/05/07 09:48:16;;;;;;;;;;;;;;;18.49;56.81;97203.25;4226162;28;5790;-76
2022/05/07 09:50:52;;;;;;;;;;;;;;;18.55;56.80;97201.47;4225274;28;5748;-75
2022/05/07 09:57:32;;;;;;;;;;;;;;;18.60;56.49;97189.03;4226714;27;5754;-76
2022/05/07 09:59:37;;;;;;;;;;;;;;;18.66;56.34;97192.66;4221605;27;5765;-76
2022/05/07 10:02:16;;;;;;;;;;;;;;;18.74;55.87;97186.13;4229228;27;5117;-75
2022/05/07 10:04:43;;;;;;;;;;;;;;;18.80;56.03;97183.34;4217237;28;5744;-78
2022/05/07 10:06:48;;;;;;;;;;;;;;;18.90;55.98;97182.72;4225971;28;5779;-79
2022/05/07 10:09:05;;;;;;;;;;;;;;;18.97;55.83;97187.97;4233198;28;5729;-78
2022/05/07 10:11:08;;;;;;;;;;;;;;;19.02;55.44;97186.19;4232477;28;5748;-77
2022/05/07 10:13:15;;;;;;;;;;;;;;;19.05;55.04;97185.72;4231269;28;5778;-80
2022/05/07 10:15:23;;;;;;;;;;;;;;;19.02;55.06;97180.81;4232460;27;5865;-79
2022/05/07 10:17:25;;;;;;;;;;;;;;;19.07;55.14;97167.53;4218873;28;5781;-80
2022/05/07 10:20:04;;;;;;;;;;;;;;;19.15;54.60;97169.84;4223890;28;5762;-79
2022/05/07 10:22:23;;;;;;;;;;;;;;;19.20;54.55;97172.63;4232393;28;5752;-79
2022/05/07 10:24:25;;;;;;;;;;;;;;;19.18;54.40;97174.72;4227278;28;5734;-78
2022/05/07 10:26:39;;;;;;;;;;;;;;;19.17;54.60;97161.56;4228328;28;5675;-80
2022/05/07 10:28:42;;;;;;;;;;;;;;;19.18;54.65;97169.38;4223604;28;5773;-80
2022/05/07 10:30:51;;;;;;;;;;;;;;;19.16;53.67;97155.41;4229522;28;6726;-78
2022/05/07 10:33:01;;;;;;;;;;;;;;;19.11;53.76;97157.97;4229131;28;5729;-78
2022/05/07 10:35:03;;;;;;;;;;;;;;;19.11;54.45;97168.69;4230851;28;6497;-78
2022/05/07 10:37:07;;;;;;;;;;;;;;;19.12;53.96;97175.66;4220406;27;5771;-78
2022/05/07 10:39:10;;;;;;;;;;;;;;;19.11;54.12;97184.75;4215712;28;5116;-81
2022/05/07 10:41:11;;;;;;;;;;;;;;;19.08;53.74;97168.34;4221704;28;5775;-79
2022/05/07 10:43:40;;;;;;;;;;;;;;;19.02;53.58;97170.09;4226829;27;5738;-78
2022/05/07 10:45:41;;;;;;;;;;;;;;;19.00;53.22;97166.03;4207184;28;5794;-77
2022/05/07 10:47:52;;;;;;;;;;;;;;;19.02;52.84;97167.41;4230047;28;6442;-77
2022/05/07 10:50:12;;;;;;;;;;;;;;;19.07;53.00;97172.09;4229831;28;5745;-79
2022/05/07 10:52:13;;;;;;;;;;;;;;;19.13;52.77;97177.28;4230750;28;5753;-79
2022/05/07 10:54:18;;;;;;;;;;;;;;;19.17;52.71;97170.44;4230940;28;5744;-79
2022/05/07 10:56:20;;;;;;;;;;;;;;;19.23;52.73;97155.25;4210673;28;5794;-79
2022/05/07 10:58:29;;;;;;;;;;;;;;;19.32;52.84;97159.16;4203021;28;5835;-79
2022/05/07 11:00:31;;;;;;;;;;;;;;;19.43;52.96;97168.22;4227267;28;5871;-78
2022/05/07 11:02:34;;;;;;;;;;;;;;;19.51;52.26;97157.13;4186146;28;5821;-79
2022/05/07 11:04:44;;;;;;;;;;;;;;;19.53;52.14;97149.63;4223326;28;5745;-79
2022/05/07 11:06:47;;;;;;;;;;;;;;;19.60;52.30;97144.97;4229872;28;5804;-77
2022/05/07 11:08:52;;;;;;;;;;;;;;;19.68;52.29;97146.44;4233621;28;5804;-79
2022/05/07 11:11:07;;;;;;;;;;;;;;;19.78;52.22;97147.41;4225576;28;5778;-79
2022/05/07 11:13:13;;;;;;;;;;;;;;;19.80;52.04;97144.50;4227128;28;5707;-79
2022/05/07 11:15:24;;;;;;;;;;;;;;;19.81;51.78;97140.75;4224167;27;5881;-78
2022/05/07 11:17:31;;;;;;;;;;;;;;;19.82;51.65;97133.50;4225419;28;5749;-80
2022/05/07 11:19:35;;;;;;;;;;;;;;;19.82;51.43;97152.28;4231663;27;5799;-79
2022/05/07 11:21:37;;;;;;;;;;;;;;;19.81;51.47;97156.84;4233778;28;5797;-78
2022/05/07 11:23:39;;;;;;;;;;;;;;;19.80;51.31;97151.72;4234497;28;5784;-78
2022/05/07 11:25:45;;;;;;;;;;;;;;;19.79;51.62;97137.50;4225205;27;5791;-80
2022/05/07 11:27:51;;;;;;;;;;;;;;;19.80;51.32;97138.31;4227194;28;5786;-79
2022/05/07 11:29:56;;;;;;;;;;;;;;;19.85;51.09;97136.53;4218344;28;6387;-78
2022/05/07 11:32:01;;;;;;;;;;;;;;;19.88;50.96;97135.22;4221863;28;5678;-78
2022/05/07 11:34:06;;;;;;;;;;;;;;;19.86;51.18;97131.97;4224530;28;5758;-79
2022/05/07 11:36:08;;;;;;;;;;;;;;;19.89;51.32;97131.50;4229651;28;5768;-79
2022/05/07 11:38:12;;;;;;;;;;;;;;;19.87;50.75;97118.31;4233014;28;5800;-78
2022/05/07 11:40:25;;;;;;;;;;;;;;;19.91;51.14;97132.88;4232998;28;5832;-78
2022/05/07 11:42:44;;;;;;;;;;;;;;;19.91;50.83;97122.13;4223752;28;5745;-79
2022/05/07 11:45:29;;;;;;;;;;;;;;;19.85;51.00;97125.81;4225236;28;5736;-76
2022/05/07 11:47:32;;;;;;;;;;;;;;;19.77;50.70;97118.97;4230200;28;5777;-78
2022/05/07 11:49:34;;;;;;;;;;;;;;;19.72;50.86;97110.84;4227877;28;5781;-77
2022/05/07 11:51:36;;;;;;;;;;;;;;;19.73;50.76;97111.66;4225774;28;5898;-78
2022/05/07 11:53:38;;;;;;;;;;;;;;;19.78;50.05;97128.63;4225060;28;5827;-77
2022/05/07 11:55:47;;;;;;;;;;;;;;;19.75;49.98;97114.91;4225664;28;5864;-78
2022/05/07 11:57:48;;;;;;;;;;;;;;;19.70;50.04;97123.66;4223309;27;5756;-77
2022/05/07 11:59:50;;;;;;;;;;;;;;;19.68;50.18;97136.50;4226446;28;5125;-78
2022/05/07 12:01:52;;;;;;;;;;;;;;;19.69;50.00;97127.41;4220855;28;5769;-77
2022/05/07 12:03:54;;;;;;;;;;;;;;;19.69;49.73;97132.78;4231748;27;5784;-77
2022/05/07 12:05:58;;;;;;;;;;;;;;;19.68;50.35;97124.97;4222443;27;7729;-78
2022/05/07 12:07:59;;;;;;;;;;;;;;;19.70;50.25;97114.81;4224432;27;6755;-79
2022/05/07 12:10:01;;;;;;;;;;;;;;;19.78;50.40;97151.97;4219052;27;5761;-76
2022/05/07 12:12:05;;;;;;;;;;;;;;;19.81;49.95;97108.56;4219376;28;5781;-79
2022/05/07 12:14:07;;;;;;;;;;;;;;;19.94;50.12;97112.81;4230489;28;5748;-78
2022/05/07 12:18:42;;;;;;;;;;;;;;;20.24;49.58;97110.56;4227811;28;5752;-79
2022/05/07 12:20:43;;;;;;;;;;;;;;;20.32;49.39;97098.59;4226565;27;5768;-78
2022/05/07 12:29:49;;;;;;;;;;;;;;;20.53;49.16;97099.72;4227708;28;5744;-78
2022/05/07 12:31:55;;;;;;;;;;;;;;;20.59;49.14;97169.34;4216430;28;5770;-76
2022/05/07 12:34:04;;;;;;;;;;;;;;;20.59;49.02;97088.75;4230750;28;5740;-78
2022/05/07 12:36:06;;;;;;;;;;;;;;;20.55;49.45;97082.28;4226928;27;5803;-81
2022/05/07 12:38:10;;;;;;;;;;;;;;;20.60;49.44;97087.69;4220259;28;5752;-81
2022/05/07 12:40:12;;;;;;;;;;;;;;;20.64;49.41;97090.72;4222947;27;6024;-77
2022/05/07 12:42:15;;;;;;;;;;;;;;;20.62;49.50;97095.53;4223646;28;7719;-78
2022/05/07 12:44:18;;;;;;;;;;;;;;;20.59;49.22;97087.94;4234386;28;5745;-79
2022/05/07 12:46:20;;;;;;;;;;;;;;;20.62;49.67;97099.03;4223267;27;6542;-81
2022/05/07 12:48:21;;;;;;;;;;;;;;;20.60;49.31;97084.22;4222149;28;5774;-79
2022/05/07 12:50:25;;;;;;;;;;;;;;;20.51;49.31;97096.47;4217045;28;6495;-80
2022/05/07 12:52:26;;;;;;;;;;;;;;;20.38;49.59;97091.41;4215490;28;5790;-80
2022/05/07 12:54:29;;;;;;;;;;;;;;;20.35;49.91;97098.91;4228698;28;5773;-79
2022/05/07 12:56:38;;;;;;;;;;;;;;;20.38;49.85;97086.03;4223730;27;5774;-80
2022/05/07 12:58:39;;;;;;;;;;;;;;;20.32;49.76;97094.03;4229113;28;5718;-78
2022/05/07 13:00:42;;;;;;;;;;;;;;;20.32;49.56;97091.34;4214304;28;5774;-81
2022/05/07 13:02:44;;;;;;;;;;;;;;;20.35;49.93;97096.22;4232739;27;5748;-79
2022/05/07 13:04:46;;;;;;;;;;;;;;;20.40;49.57;97089.31;4228566;27;5652;-80
2022/05/07 13:06:48;;;;;;;;;;;;;;;20.41;49.78;97085.56;4224574;28;5679;-78
2022/05/07 13:08:50;;;;;;;;;;;;;;;20.32;49.69;97098.59;4217915;28;5763;-77
2022/05/07 13:10:52;;;;;;;;;;;;;;;20.21;49.74;97084.22;4227155;28;5662;-79
2022/05/07 13:12:54;;;;;;;;;;;;;;;20.18;49.87;97098.13;4220999;28;6363;-78
2022/05/07 13:14:57;;;;;;;;;;;;;;;20.11;49.84;97092.13;4222909;27;5856;-78
2022/05/07 13:16:59;;;;;;;;;;;;;;;20.15;49.71;97097.78;4226929;28;6596;-68
2022/05/07 13:19:01;;;;;;;;;;;;;;;20.16;49.60;97099.41;4233415;28;5795;-75
2022/05/07 13:21:03;;;;;;;;;;;;;;;20.13;49.91;97083.81;4198723;28;5799;-81
2022/05/07 13:23:05;;;;;;;;;;;;;;;20.15;49.87;97087.88;4229120;28;5742;-83
2022/05/07 13:25:07;;;;;;;;;;;;;;;20.15;49.85;97077.13;4226481;27;5860;-82
2022/05/07 13:27:08;;;;;;;;;;;;;;;20.13;49.53;97073.88;4224479;27;5650;-82
2022/05/07 13:29:11;;;;;;;;;;;;;;;20.07;49.95;97091.00;4232866;28;6403;-82
2022/05/07 13:31:14;;;;;;;;;;;;;;;20.04;49.80;97068.13;4228788;28;5758;-83
2022/05/07 13:33:16;;;;;;;;;;;;;;;20.01;50.13;97078.53;4228141;28;5746;-84
2022/05/07 13:35:18;;;;;;;;;;;;;;;19.97;49.97;97080.09;4233974;27;5725;-83
2022/05/07 13:37:20;;;;;;;;;;;;;;;19.92;50.21;97098.78;4226357;27;5686;-82
2022/05/07 13:39:29;;;;;;;;;;;;;;;19.88;50.04;97082.38;4230034;27;5766;-83
2022/05/07 13:41:30;;;;;;;;;;;;;;;19.78;50.43;97082.22;4228637;28;6464;-82
2022/05/07 13:43:32;;;;;;;;;;;;;;;19.76;50.50;97074.44;4210929;28;5826;-79
2022/05/07 13:45:34;;;;;;;;;;;;;;;19.81;50.45;97075.56;4232500;27;5683;-81
2022/05/07 13:47:41;;;;;;;;;;;;;;;19.82;50.69;97082.53;4233645;27;6330;-82
2022/05/07 13:49:42;;;;;;;;;;;;;;;19.81;50.73;97080.91;4235272;27;5745;-82
2022/05/07 13:51:44;;;;;;;;;;;;;;;19.84;50.47;97064.34;4233130;27;5646;-80
2022/05/07 13:53:46;;;;;;;;;;;;;;;19.83;50.42;97068.09;4220864;28;5676;-82
2022/05/07 13:55:48;;;;;;;;;;;;;;;19.82;50.63;97077.16;4226268;28;7062;-82
2022/05/07 13:57:50;;;;;;;;;;;;;;;19.79;50.62;97073.13;4232493;28;5674;-84
2022/05/07 13:59:52;;;;;;;;;;;;;;;19.83;50.59;97058.19;4230074;27;5794;-81
2022/05/07 14:02:00;;;;;;;;;;;;;;;19.87;50.41;97064.66;4226249;27;5770;-83
2022/05/07 14:04:02;;;;;;;;;;;;;;;19.94;50.44;97064.50;4230491;27;5737;-83
2022/05/07 14:06:04;;;;;;;;;;;;;;;19.95;50.41;97074.19;4228964;28;5773;-83
2022/05/07 14:08:06;;;;;;;;;;;;;;;19.96;50.14;97067.75;4232582;28;5748;-83
2022/05/07 14:10:09;;;;;;;;;;;;;;;19.96;49.96;97063.19;4225854;28;5671;-83
2022/05/07 14:12:11;;;;;;;;;;;;;;;19.99;50.06;97059.19;4229026;28;5901;-81
2022/05/07 14:14:17;;;;;;;;;;;;;;;20.00;50.02;97058.13;4225317;27;5744;-84
2022/05/07 14:16:19;;;;;;;;;;;;;;;20.01;49.74;97060.56;4226144;27;5749;-81
2022/05/07 14:18:20;;;;;;;;;;;;;;;20.03;49.88;97060.31;4224088;28;5764;-79
2022/05/07 14:20:22;;;;;;;;;;;;;;;20.04;50.03;97048.53;4227046;28;5853;-82
2022/05/07 14:22:24;;;;;;;;;;;;;;;20.09;49.83;97056.66;4227504;28;5765;-83
2022/05/07 14:24:27;;;;;;;;;;;;;;;20.10;49.89;97058.28;4224568;28;5770;-82
2022/05/07 14:26:28;;;;;;;;;;;;;;;20.07;49.52;97050.75;4215791;28;5767;-82
2022/05/07 14:28:30;;;;;;;;;;;;;;;20.06;49.44;97047.25;4228965;28;5768;-85
2022/05/07 14:30:32;;;;;;;;;;;;;;;20.06;49.41;97043.75;4231068;28;5748;-82
2022/05/07 14:32:34;;;;;;;;;;;;;;;20.07;49.54;97037.31;4227103;28;6495;-84
2022/05/07 14:34:37;;;;;;;;;;;;;;;20.06;49.35;97046.44;4228783;28;5782;-86
2022/05/07 14:36:39;;;;;;;;;;;;;;;20.04;49.19;97043.16;4216806;28;5671;-83
2022/05/07 14:38:40;;;;;;;;;;;;;;;20.04;49.35;97037.78;4216204;28;7691;-82
2022/05/07 14:40:43;;;;;;;;;;;;;;;20.02;49.23;97040.72;4214453;28;5782;-79
2022/05/07 14:42:46;;;;;;;;;;;;;;;20.03;49.31;97058.44;4229475;28;5737;-77
2022/05/07 14:44:48;;;;;;;;;;;;;;;20.04;48.96;97053.91;4235685;28;5741;-82
2022/05/07 14:46:49;;;;;;;;;;;;;;;20.01;49.12;97039.09;4235352;27;6461;-81
2022/05/07 14:48:53;;;;;;;;;;;;;;;20.00;49.29;97037.47;4225505;28;5813;-79
2022/05/07 14:50:55;;;;;;;;;;;;;;;20.03;49.39;97041.53;4229083;27;5831;-79
2022/05/07 14:52:58;;;;;;;;;;;;;;;20.04;49.23;97048.53;4218825;27;5785;-78
2022/05/07 14:55:00;;;;;;;;;;;;;;;20.10;48.92;97044.06;4226589;28;5839;-80
2022/05/07 14:57:02;;;;;;;;;;;;;;;20.11;49.29;97043.81;4224056;28;5778;-77
2022/05/07 14:59:05;;;;;;;;;;;;;;;20.10;49.24;97044.06;4220386;28;5770;-77
2022/05/07 15:01:08;;;;;;;;;;;;;;;20.09;49.33;97039.75;4229491;27;5860;-75
2022/05/07 15:03:10;;;;;;;;;;;;;;;20.07;49.44;97031.94;4226242;28;5840;-78
2022/05/07 15:05:13;;;;;;;;;;;;;;;20.08;49.27;97027.41;4205598;28;5845;-77
2022/05/07 15:07:15;;;;;;;;;;;;;;;20.10;49.25;97042.19;4232333;28;5849;-78
2022/05/07 15:11:40;;;;;;;;;;;;;;;20.03;49.38;97036.16;4217915;28;5789;-83
2022/05/07 15:13:43;;;;;;;;;;;;;;;20.03;49.50;97030.81;4223342;28;5761;-80
2022/05/07 15:15:45;;;;;;;;;;;;;;;20.05;49.43;97023.34;4225927;28;5811;-80
2022/05/07 15:17:47;;;;;;;;;;;;;;;20.05;49.20;97020.66;4218488;27;5787;-78
2022/05/07 15:19:49;;;;;;;;;;;;;;;20.08;49.11;97030.88;4229691;28;5882;-79
2022/05/07 15:21:51;;;;;;;;;;;;;;;20.11;49.38;97027.69;4235636;27;7784;-80
2022/05/07 15:23:53;;;;;;;;;;;;;;;20.13;49.03;97025.56;4211230;28;5803;-82
2022/05/07 15:25:55;;;;;;;;;;;;;;;20.13;49.08;97027.44;4223987;28;5732;-83
2022/05/07 15:27:56;;;;;;;;;;;;;;;20.14;48.83;97021.84;4219928;28;5803;-82
2022/05/07 15:29:58;;;;;;;;;;;;;;;20.16;49.17;97025.09;4227443;28;5772;-82
2022/05/07 15:36:50;;;;;;;;;;;;;;;20.14;48.99;97027.19;4227292;27;5850;-79
2022/05/07 15:38:52;;;;;;;;;;;;;;;20.16;48.86;97013.53;4218200;28;5766;-78
2022/05/07 15:40:54;;;;;;;;;;;;;;;20.16;49.07;97025.09;4233423;28;5748;-76
2022/05/07 15:42:57;;;;;;;;;;;;;;;20.16;48.89;97025.09;4220966;27;5778;-77
2022/05/07 15:44:59;;;;;;;;;;;;;;;20.19;48.91;97023.78;4222713;28;5746;-77
2022/05/07 15:47:01;;;;;;;;;;;;;;;20.22;48.50;97029.47;4223680;28;6523;-77
2022/05/07 15:49:03;;;;;;;;;;;;;;;20.26;48.82;97027.09;4218844;28;5763;-76
2022/05/07 15:51:05;;;;;;;;;;;;;;;20.26;48.92;97033.25;4224217;28;5793;-77
2022/05/07 15:53:07;;;;;;;;;;;;;;;20.28;48.48;97030.34;4228256;27;5765;-77
2022/05/07 15:55:09;;;;;;;;;;;;;;;20.28;48.56;97028.47;4225108;28;5818;-75
2022/05/07 15:57:10;;;;;;;;;;;;;;;20.29;48.69;97026.59;4224509;28;5778;-76
2022/05/07 15:59:15;;;;;;;;;;;;;;;20.29;48.60;97038.16;4221959;28;5789;-79
2022/05/07 16:01:17;;;;;;;;;;;;;;;20.29;48.80;97024.72;4223843;28;7243;-77
2022/05/07 16:03:18;;;;;;;;;;;;;;;20.31;48.56;97025.28;4224909;28;7741;-73
2022/05/07 16:05:20;;;;;;;;;;;;;;;20.29;48.70;97023.94;4232193;28;5741;-73
2022/05/07 16:07:22;;;;;;;;;;;;;;;20.29;48.73;97014.00;4231781;28;5845;-73
2022/05/07 16:09:24;;;;;;;;;;;;;;;20.30;48.96;97020.97;4229544;27;5868;-73
2022/05/07 16:11:26;;;;;;;;;;;;;;;20.28;48.97;97011.56;4221799;27;5862;-71
2022/05/07 16:13:27;;;;;;;;;;;;;;;20.25;48.94;97022.78;4233822;27;5786;-80
2022/05/07 16:15:31;;;;;;;;;;;;;;;20.24;48.68;97010.41;4221777;27;5862;-81
2022/05/07 16:17:34;;;;;;;;;;;;;;;20.25;48.80;97012.84;4234243;28;5840;-80
2022/05/07 16:19:39;;;;;;;;;;;;;;;20.27;49.06;97004.53;4233266;28;5765;-80
2022/05/07 16:21:40;;;;;;;;;;;;;;;20.28;48.87;97001.63;4229602;27;5753;-73
2022/05/07 16:26:08;;;;;;;;;;;;;;;20.31;48.84;97011.88;4229238;28;5760;-73
2022/05/07 16:28:11;;;;;;;;;;;;;;;20.33;48.74;97012.44;4223600;28;5880;-74
2022/05/07 16:30:13;;;;;;;;;;;;;;;20.33;48.51;96995.50;4233275;27;5737;-73
2022/05/07 16:32:16;;;;;;;;;;;;;;;20.35;48.70;97002.25;4218806;28;5226;-73
2022/05/07 16:34:20;;;;;;;;;;;;;;;20.36;48.39;97005.75;4228838;28;5108;-73
2022/05/07 16:36:22;;;;;;;;;;;;;;;20.36;47.95;97003.88;4212235;28;5869;-72
2022/05/07 16:38:23;;;;;;;;;;;;;;;20.37;48.25;97002.00;4214489;28;5786;-71
2022/05/07 16:40:25;;;;;;;;;;;;;;;20.38;47.95;97000.94;4216278;28;5782;-71
2022/05/07 16:42:27;;;;;;;;;;;;;;;20.38;47.76;97000.13;4228486;28;5853;-71
2022/05/07 16:44:29;;;;;;;;;;;;;;;20.38;47.87;97010.84;4232634;28;5748;-71
2022/05/07 16:46:31;;;;;;;;;;;;;;;20.40;47.92;97006.88;4233038;28;5819;-72
2022/05/07 16:48:33;;;;;;;;;;;;;;;20.41;47.48;97013.88;4223884;27;5729;-71
2022/05/07 16:50:35;;;;;;;;;;;;;;;20.40;47.68;97004.19;4232801;27;5749;-71
2022/05/07 16:52:41;;;;;;;;;;;;;;;20.40;47.43;97003.38;4232275;27;6651;-71
2022/05/07 16:54:42;;;;;;;;;;;;;;;20.40;47.38;97017.63;4225510;27;5848;-71
2022/05/07 16:56:44;;;;;;;;;;;;;;;20.40;47.65;97003.38;4228300;28;5852;-71
2022/05/07 16:58:46;;;;;;;;;;;;;;;20.39;47.75;97007.13;4232112;27;5845;-71
2022/05/07 17:00:47;;;;;;;;;;;;;;;20.35;47.66;97007.63;4216585;28;5758;-71
2022/05/07 17:02:49;;;;;;;;;;;;;;;20.30;47.83;97010.25;4230747;27;6752;-77
2022/05/07 17:04:51;;;;;;;;;;;;;;;20.29;47.42;97007.81;4207466;28;5782;-76
2022/05/07 17:06:53;;;;;;;;;;;;;;;20.20;47.18;97018.16;4228537;27;5804;-72
2022/05/07 17:08:56;;;;;;;;;;;;;;;20.13;47.23;97008.66;4229693;28;5762;-71
2022/05/07 17:10:59;;;;;;;;;;;;;;;20.12;46.96;97013.22;4232246;27;5757;-71
2022/05/07 17:13:01;;;;;;;;;;;;;;;20.11;47.15;97014.28;4222989;27;5753;-70
2022/05/07 17:15:09;;;;;;;;;;;;;;;20.08;47.02;97012.09;4221073;27;5774;-70
2022/05/07 17:17:10;;;;;;;;;;;;;;;20.05;46.89;97020.66;4231327;28;5892;-71
2022/05/07 17:19:12;;;;;;;;;;;;;;;20.02;46.85;97023.81;4226577;27;5762;-71
2022/05/07 17:21:18;;;;;;;;;;;;;;;19.98;46.54;97017.31;4216930;28;5778;-71
2022/05/07 17:23:20;;;;;;;;;;;;;;;19.95;46.22;97017.84;4226375;27;5765;-71
2022/05/07 17:25:21;;;;;;;;;;;;;;;19.89;46.39;97021.50;4219221;28;5819;-71
2022/05/07 17:27:23;;;;;;;;;;;;;;;19.87;46.59;97026.28;4224418;28;5758;-70
2022/05/07 17:29:25;;;;;;;;;;;;;;;19.83;46.44;97025.97;4223005;28;5749;-70
2022/05/07 17:31:28;;;;;;;;;;;;;;;19.77;46.32;97022.41;4223718;27;5757;-70
2022/05/07 17:33:31;;;;;;;;;;;;;;;19.73;46.40;97025.84;4224031;27;6027;-71
2022/05/07 17:35:33;;;;;;;;;;;;;;;19.69;46.33;97020.13;4229304;27;5753;-71
2022/05/07 17:37:34;;;;;;;;;;;;;;;19.70;46.43;97035.16;4231480;27;5756;-70
2022/05/07 17:39:37;;;;;;;;;;;;;;;19.63;46.45;97039.91;4229862;27;5752;-71
2022/05/07 17:41:38;;;;;;;;;;;;;;;19.57;46.54;97035.50;4230991;28;5745;-71
2022/05/07 17:43:40;;;;;;;;;;;;;;;19.59;46.61;97041.41;4220690;28;5769;-71
2022/05/07 17:45:42;;;;;;;;;;;;;;;19.62;46.58;97038.28;4225925;27;5749;-72
2022/05/07 17:47:43;;;;;;;;;;;;;;;19.62;46.66;97038.28;4228807;27;5769;-72
2022/05/07 17:49:45;;;;;;;;;;;;;;;19.61;46.73;97033.97;4224494;27;5802;-81
2022/05/07 17:51:49;;;;;;;;;;;;;;;19.65;46.70;97040.44;4226421;28;5833;-78
2022/05/07 17:53:53;;;;;;;;;;;;;;;19.62;46.84;97034.78;4228020;27;5785;-78
2022/05/07 17:55:55;;;;;;;;;;;;;;;19.58;46.66;97039.78;4225768;27;5796;-72